createdAt,value
2023-02-02T00:00:13.645Z,1019.70
2023-02-02T00:01:13.523Z,1019.67
2023-02-02T00:02:13.489Z,1019.62
2023-02-02T00:03:13.404Z,1019.62
2023-02-02T00:04:13.422Z,1019.65
2023-02-02T00:05:13.645Z,1019.68
2023-02-02T00:06:13.842Z,1019.63
2023-02-02T00:07:13.767Z,1019.62
2023-02-02T00:08:13.759Z,1019.64
2023-02-02T00:09:13.677Z,1019.61
2023-02-02T00:10:13.651Z,1019.57
2023-02-02T00:11:13.560Z,1019.61
2023-02-02T00:12:13.870Z,1019.56
2023-02-02T00:13:14.086Z,1019.63
2023-02-02T00:14:13.192Z,1019.65
2023-02-02T00:15:13.464Z,1019.69
2023-02-02T00:16:13.855Z,1019.67
2023-02-02T00:17:12.991Z,1019.62
2023-02-02T00:18:13.075Z,1019.67
2023-02-02T00:19:13.169Z,1019.69
2023-02-02T00:20:13.607Z,1019.71
2023-02-02T00:21:13.655Z,1019.66
2023-02-02T00:22:14.035Z,1019.72
2023-02-02T00:23:12.885Z,1019.71
2023-02-02T00:24:13.017Z,1019.69
2023-02-02T00:25:13.313Z,1019.68
2023-02-02T00:26:13.241Z,1019.67
2023-02-02T00:27:13.195Z,1019.75
2023-02-02T00:28:13.158Z,1019.68
2023-02-02T00:29:13.016Z,1019.72
2023-02-02T00:30:13.195Z,1019.58
2023-02-02T00:31:13.638Z,1019.58
2023-02-02T00:32:13.648Z,1019.53
2023-02-02T00:33:13.540Z,1019.60
2023-02-02T00:34:14.547Z,1019.61
2023-02-02T00:35:13.811Z,1019.64
2023-02-02T00:36:13.740Z,1019.66
2023-02-02T00:37:13.854Z,1019.72
2023-02-02T00:38:13.861Z,1019.62
2023-02-02T00:39:13.976Z,1019.57
2023-02-02T00:40:12.944Z,1019.68
2023-02-02T00:41:12.882Z,1019.73
2023-02-02T00:42:13.804Z,1019.69
2023-02-02T00:43:13.759Z,1019.72
2023-02-02T00:44:13.705Z,1019.67
2023-02-02T00:45:13.768Z,1019.67
2023-02-02T00:46:13.875Z,1019.63
2023-02-02T00:47:13.928Z,1019.59
2023-02-02T00:48:12.903Z,1019.58
2023-02-02T00:49:12.842Z,1019.58
2023-02-02T00:50:14.018Z,1019.61
2023-02-02T00:51:12.993Z,1019.62
2023-02-02T00:52:13.234Z,1019.56
2023-02-02T00:53:13.156Z,1019.60
2023-02-02T00:54:13.051Z,1019.63
2023-02-02T00:55:13.349Z,1019.60
2023-02-02T00:56:13.461Z,1019.62
2023-02-02T00:57:13.795Z,1019.59
2023-02-02T00:58:14.002Z,1019.64
2023-02-02T00:59:12.975Z,1019.63
2023-02-02T01:00:12.941Z,1019.66
2023-02-02T01:01:13.161Z,1019.62
2023-02-02T01:02:13.326Z,1019.70
2023-02-02T01:03:13.229Z,1019.67
2023-02-02T01:04:13.141Z,1019.66
2023-02-02T01:05:13.358Z,1019.64
2023-02-02T01:06:13.258Z,1019.68
2023-02-02T01:07:13.159Z,1019.62
2023-02-02T01:08:13.053Z,1019.62
2023-02-02T01:09:13.000Z,1019.61
2023-02-02T01:10:13.089Z,1019.63
2023-02-02T01:11:13.047Z,1019.59
2023-02-02T01:12:13.405Z,1019.62
2023-02-02T01:13:13.689Z,1019.70
2023-02-02T01:14:13.578Z,1019.62
2023-02-02T01:15:13.674Z,1019.67
2023-02-02T01:16:13.658Z,1019.66
2023-02-02T01:17:13.620Z,1019.66
2023-02-02T01:18:13.709Z,1019.70
2023-02-02T01:19:13.618Z,1019.64
2023-02-02T01:20:13.564Z,1019.62
2023-02-02T01:21:13.962Z,1019.66
2023-02-02T01:22:13.111Z,1019.58
2023-02-02T01:23:13.067Z,1019.62
2023-02-02T01:24:13.011Z,1019.65
2023-02-02T01:25:13.196Z,1019.69
2023-02-02T01:26:13.112Z,1019.68
2023-02-02T01:27:13.463Z,1019.66
2023-02-02T01:28:13.501Z,1019.62
2023-02-02T01:29:13.440Z,1019.60
2023-02-02T01:30:13.494Z,1019.65
2023-02-02T01:31:14.863Z,1019.62
2023-02-02T01:32:12.937Z,1019.64
2023-02-02T01:33:12.926Z,1019.58
2023-02-02T01:34:13.335Z,1019.66
2023-02-02T01:35:13.334Z,1019.65
2023-02-02T01:36:13.599Z,1019.68
2023-02-02T01:37:13.506Z,1019.67
2023-02-02T01:38:13.628Z,1019.76
2023-02-02T01:39:13.901Z,1019.74
2023-02-02T01:40:12.928Z,1019.76
2023-02-02T01:41:13.041Z,1019.75
2023-02-02T01:42:13.127Z,1019.75
2023-02-02T01:43:13.359Z,1019.75
2023-02-02T01:44:13.546Z,1019.71
2023-02-02T01:45:13.601Z,1019.71
2023-02-02T01:46:13.488Z,1019.79
2023-02-02T01:47:13.769Z,1019.78
2023-02-02T01:48:13.946Z,1019.76
2023-02-02T01:49:12.896Z,1019.81
2023-02-02T01:50:12.836Z,1019.84
2023-02-02T01:51:13.702Z,1019.84
2023-02-02T01:52:13.625Z,1019.86
2023-02-02T01:53:13.712Z,1019.86
2023-02-02T01:54:13.660Z,1019.87
2023-02-02T01:55:13.720Z,1019.86
2023-02-02T01:56:13.615Z,1019.88
2023-02-02T01:57:13.734Z,1019.89
2023-02-02T01:58:13.570Z,1019.92
2023-02-02T01:59:13.610Z,1019.90
2023-02-02T02:00:13.782Z,1019.88
2023-02-02T02:01:13.822Z,1019.92
2023-02-02T02:02:13.811Z,1019.95
2023-02-02T02:03:14.097Z,1019.91
2023-02-02T02:04:12.938Z,1019.95
2023-02-02T02:05:12.936Z,1019.89
2023-02-02T02:06:12.843Z,1019.92
2023-02-02T02:07:13.811Z,1019.91
2023-02-02T02:08:13.739Z,1019.94
2023-02-02T02:09:13.657Z,1019.91
2023-02-02T02:10:13.833Z,1019.93
2023-02-02T02:11:13.690Z,1019.90
2023-02-02T02:12:13.756Z,1019.89
2023-02-02T02:13:13.835Z,1019.89
2023-02-02T02:14:13.735Z,1019.93
2023-02-02T02:15:13.605Z,1019.96
2023-02-02T02:16:13.869Z,1019.88
2023-02-02T02:17:12.801Z,1019.93
2023-02-02T02:18:13.732Z,1019.96
2023-02-02T02:19:13.796Z,1019.96
2023-02-02T02:20:13.624Z,1019.96
2023-02-02T02:21:13.552Z,1019.98
2023-02-02T02:22:13.594Z,1019.97
2023-02-02T02:23:13.831Z,1019.94
2023-02-02T02:24:13.874Z,1019.94
2023-02-02T02:25:13.062Z,1019.92
2023-02-02T02:26:13.041Z,1019.97
2023-02-02T02:27:12.939Z,1019.89
2023-02-02T02:28:12.807Z,1019.91
2023-02-02T02:29:13.763Z,1019.90
2023-02-02T02:30:13.657Z,1019.87
2023-02-02T02:31:13.550Z,1019.90
2023-02-02T02:32:13.519Z,1019.92
2023-02-02T02:33:13.514Z,1019.88
2023-02-02T02:34:13.502Z,1019.84
2023-02-02T02:35:13.744Z,1019.83
2023-02-02T02:36:14.151Z,1019.76
2023-02-02T02:37:13.518Z,1019.79
2023-02-02T02:38:13.745Z,1019.78
2023-02-02T02:39:13.663Z,1019.89
2023-02-02T02:40:13.663Z,1019.81
2023-02-02T02:41:13.676Z,1019.89
2023-02-02T02:42:13.714Z,1019.82
2023-02-02T02:43:13.596Z,1019.83
2023-02-02T02:44:13.583Z,1019.81
2023-02-02T02:45:13.492Z,1019.79
2023-02-02T02:46:13.507Z,1019.84
2023-02-02T02:47:13.608Z,1019.80
2023-02-02T02:48:13.509Z,1019.82
2023-02-02T02:49:13.448Z,1019.78
2023-02-02T02:50:13.511Z,1019.84
2023-02-02T02:51:13.484Z,1019.80
2023-02-02T02:52:13.426Z,1019.81
2023-02-02T02:53:13.499Z,1019.85
2023-02-02T02:54:13.468Z,1019.81
2023-02-02T02:55:13.446Z,1019.79
2023-02-02T02:56:13.331Z,1019.75
2023-02-02T02:57:13.263Z,1019.83
2023-02-02T02:58:13.296Z,1019.80
2023-02-02T02:59:13.238Z,1019.79
2023-02-02T03:00:13.270Z,1019.82
2023-02-02T03:01:13.367Z,1019.82
2023-02-02T03:02:13.457Z,1019.78
2023-02-02T03:03:13.476Z,1019.79
2023-02-02T03:04:13.558Z,1019.84
2023-02-02T03:05:13.595Z,1019.83
2023-02-02T03:06:13.820Z,1019.88
2023-02-02T03:07:13.780Z,1019.85
2023-02-02T03:08:14.094Z,1019.85
2023-02-02T03:09:13.194Z,1019.85
2023-02-02T03:10:13.306Z,1019.84
2023-02-02T03:11:13.242Z,1019.88
2023-02-02T03:12:13.269Z,1019.92
2023-02-02T03:13:13.174Z,1019.86
2023-02-02T03:14:13.238Z,1019.92
2023-02-02T03:15:13.353Z,1019.85
2023-02-02T03:16:13.353Z,1019.85
2023-02-02T03:17:13.665Z,1019.89
2023-02-02T03:18:13.783Z,1019.91
2023-02-02T03:19:13.915Z,1019.82
2023-02-02T03:20:12.831Z,1019.90
2023-02-02T03:21:13.758Z,1019.88
2023-02-02T03:22:14.013Z,1019.87
2023-02-02T03:23:12.916Z,1019.89
2023-02-02T03:24:13.199Z,1019.83
2023-02-02T03:25:13.447Z,1019.82
2023-02-02T03:26:13.552Z,1019.82
2023-02-02T03:27:13.791Z,1019.82
2023-02-02T03:28:14.190Z,1019.82
2023-02-02T03:29:13.412Z,1019.74
2023-02-02T03:30:13.526Z,1019.74
2023-02-02T03:31:13.759Z,1019.72
2023-02-02T03:32:14.016Z,1019.76
2023-02-02T03:33:13.153Z,1019.74
2023-02-02T03:34:13.562Z,1019.79
2023-02-02T03:35:13.462Z,1019.83
2023-02-02T03:36:13.376Z,1019.81
2023-02-02T03:37:13.252Z,1019.82
2023-02-02T03:38:13.341Z,1019.87
2023-02-02T03:39:13.399Z,1019.83
2023-02-02T03:40:13.302Z,1019.87
2023-02-02T03:41:13.359Z,1019.86
2023-02-02T03:42:13.265Z,1019.87
2023-02-02T03:43:13.152Z,1019.83
2023-02-02T03:44:13.035Z,1019.84
2023-02-02T03:45:12.968Z,1019.91
2023-02-02T03:46:13.291Z,1019.90
2023-02-02T03:47:13.142Z,1019.89
2023-02-02T03:48:13.155Z,1019.91
2023-02-02T03:49:13.078Z,1019.91
2023-02-02T03:50:13.192Z,1019.90
2023-02-02T03:51:13.141Z,1019.84
2023-02-02T03:52:13.039Z,1019.87
2023-02-02T03:53:13.074Z,1019.81
2023-02-02T03:54:13.040Z,1019.79
2023-02-02T03:55:12.992Z,1019.87
2023-02-02T03:56:13.055Z,1019.86
2023-02-02T03:57:13.039Z,1019.88
2023-02-02T03:58:13.279Z,1019.87
2023-02-02T03:59:13.495Z,1019.82
2023-02-02T04:00:13.400Z,1019.83
2023-02-02T04:01:13.363Z,1019.82
2023-02-02T04:02:13.492Z,1019.85
2023-02-02T04:03:13.723Z,1019.78
2023-02-02T04:04:14.043Z,1019.82
2023-02-02T04:05:13.013Z,1019.81
2023-02-02T04:06:13.344Z,1019.76
2023-02-02T04:07:13.377Z,1019.88
2023-02-02T04:08:13.519Z,1019.81
2023-02-02T04:09:13.424Z,1019.89
2023-02-02T04:10:13.269Z,1019.93
2023-02-02T04:11:13.241Z,1019.81
2023-02-02T04:12:13.211Z,1019.84
2023-02-02T04:13:13.049Z,1019.85
2023-02-02T04:14:13.152Z,1019.92
2023-02-02T04:15:13.224Z,1019.86
2023-02-02T04:16:13.362Z,1019.90
2023-02-02T04:17:13.313Z,1019.88
2023-02-02T04:18:13.454Z,1019.88
2023-02-02T04:19:13.631Z,1019.89
2023-02-02T04:20:13.808Z,1019.88
2023-02-02T04:21:14.104Z,1019.85
2023-02-02T04:22:13.276Z,1019.87
2023-02-02T04:23:13.118Z,1019.84
2023-02-02T04:24:13.028Z,1019.79
2023-02-02T04:25:12.960Z,1019.86
2023-02-02T04:26:12.917Z,1019.92
2023-02-02T04:27:12.775Z,1019.85
2023-02-02T04:28:13.910Z,1019.84
2023-02-02T04:29:12.917Z,1019.80
2023-02-02T04:30:12.944Z,1019.92
2023-02-02T04:31:13.095Z,1019.87
2023-02-02T04:32:13.080Z,1019.89
2023-02-02T04:33:13.045Z,1019.83
2023-02-02T04:34:12.943Z,1019.85
2023-02-02T04:35:12.878Z,1019.84
2023-02-02T04:36:12.962Z,1019.83
2023-02-02T04:37:13.104Z,1019.86
2023-02-02T04:38:13.151Z,1019.85
2023-02-02T04:39:13.427Z,1019.86
2023-02-02T04:40:13.329Z,1019.89
2023-02-02T04:41:13.403Z,1019.82
2023-02-02T04:42:13.291Z,1019.93
2023-02-02T04:43:13.224Z,1019.90
2023-02-02T04:44:13.176Z,1019.95
2023-02-02T04:45:13.103Z,1019.88
2023-02-02T04:46:13.149Z,1019.94
2023-02-02T04:47:13.047Z,1019.94
2023-02-02T04:48:12.910Z,1019.88
2023-02-02T04:49:12.853Z,1019.93
2023-02-02T04:50:13.853Z,1019.93
2023-02-02T04:51:13.789Z,1019.92
2023-02-02T04:52:13.808Z,1019.90
2023-02-02T04:53:15.082Z,1019.89
2023-02-02T04:54:13.119Z,1019.93
2023-02-02T04:55:13.369Z,1019.88
2023-02-02T04:56:13.633Z,1019.88
2023-02-02T04:57:13.797Z,1019.91
2023-02-02T04:58:14.179Z,1019.84
2023-02-02T04:59:13.228Z,1019.93
2023-02-02T05:00:13.404Z,1019.91
2023-02-02T05:01:13.550Z,1019.90
2023-02-02T05:02:13.778Z,1019.91
2023-02-02T05:03:13.847Z,1019.85
2023-02-02T05:04:14.136Z,1019.89
2023-02-02T05:05:13.117Z,1019.90
2023-02-02T05:06:15.799Z,1019.91
2023-02-02T05:08:50.121Z,1019.89
2023-02-02T05:09:13.213Z,1019.90
2023-02-02T05:10:13.213Z,1019.88
2023-02-02T05:11:13.926Z,1019.86
2023-02-02T05:12:12.897Z,1019.91
2023-02-02T05:13:13.099Z,1019.88
2023-02-02T05:14:13.099Z,1019.92
2023-02-02T05:15:13.106Z,1019.90
2023-02-02T05:16:13.034Z,1020.00
2023-02-02T05:17:13.305Z,1019.84
2023-02-02T05:18:13.450Z,1019.86
2023-02-02T05:19:13.384Z,1019.83
2023-02-02T05:20:13.295Z,1019.81
2023-02-02T05:21:13.144Z,1019.88
2023-02-02T05:22:13.028Z,1019.82
2023-02-02T05:23:12.925Z,1019.77
2023-02-02T05:24:12.975Z,1019.79
2023-02-02T05:25:12.907Z,1019.80
2023-02-02T05:26:13.221Z,1019.81
2023-02-02T05:27:13.361Z,1019.84
2023-02-02T05:28:28.448Z,1019.82
2023-02-02T05:29:13.620Z,1019.86
2023-02-02T05:30:13.805Z,1019.81
2023-02-02T05:31:14.372Z,1019.87
2023-02-02T05:32:13.598Z,1019.80
2023-02-02T05:33:13.720Z,1019.92
2023-02-02T05:34:13.678Z,1019.86
2023-02-02T05:35:13.674Z,1019.92
2023-02-02T05:36:13.713Z,1019.90
2023-02-02T05:37:13.712Z,1019.95
2023-02-02T05:38:14.011Z,1019.91
2023-02-02T05:39:13.002Z,1019.92
2023-02-02T05:40:13.107Z,1019.86
2023-02-02T05:41:13.174Z,1019.84
2023-02-02T05:42:13.255Z,1019.85
2023-02-02T05:43:13.227Z,1019.87
2023-02-02T05:44:13.169Z,1019.87
2023-02-02T05:45:13.101Z,1019.84
2023-02-02T05:46:13.211Z,1019.85
2023-02-02T05:47:13.252Z,1019.80
2023-02-02T05:48:13.397Z,1019.85
2023-02-02T05:49:13.539Z,1019.84
2023-02-02T05:50:13.435Z,1019.90
2023-02-02T05:51:13.276Z,1019.84
2023-02-02T05:52:13.390Z,1019.91
2023-02-02T05:53:13.555Z,1019.84
2023-02-02T05:54:13.497Z,1019.86
2023-02-02T05:55:13.519Z,1019.84
2023-02-02T05:56:13.373Z,1019.82
2023-02-02T05:57:13.354Z,1019.86
2023-02-02T05:58:13.321Z,1019.88
2023-02-02T05:59:13.666Z,1019.82
2023-02-02T06:00:13.853Z,1019.83
2023-02-02T06:01:13.857Z,1019.82
2023-02-02T06:02:13.796Z,1019.81
2023-02-02T06:03:13.754Z,1019.86
2023-02-02T06:04:14.014Z,1019.85
2023-02-02T06:05:13.369Z,1019.85
2023-02-02T06:06:13.518Z,1019.83
2023-02-02T06:07:13.618Z,1019.87
2023-02-02T06:08:14.039Z,1019.85
2023-02-02T06:09:13.078Z,1019.89
2023-02-02T06:10:13.099Z,1019.87
2023-02-02T06:11:13.243Z,1019.92
2023-02-02T06:12:13.558Z,1019.91
2023-02-02T06:13:13.602Z,1019.94
2023-02-02T06:14:13.670Z,1019.92
2023-02-02T06:15:14.009Z,1019.94
2023-02-02T06:16:13.148Z,1019.99
2023-02-02T06:17:13.236Z,1020.00
2023-02-02T06:18:13.044Z,1019.91
2023-02-02T06:19:12.907Z,1019.99
2023-02-02T06:20:12.860Z,1019.97
2023-02-02T06:21:13.808Z,1019.92
2023-02-02T06:22:13.895Z,1019.96
2023-02-02T06:23:14.071Z,1020.00
2023-02-02T06:24:12.874Z,1019.83
2023-02-02T06:25:13.803Z,1020.01
2023-02-02T06:26:13.701Z,1019.98
2023-02-02T06:27:13.687Z,1020.06
2023-02-02T06:28:13.540Z,1020.00
2023-02-02T06:29:13.451Z,1020.06
2023-02-02T06:30:13.529Z,1020.07
2023-02-02T06:31:13.606Z,1019.99
2023-02-02T06:32:13.685Z,1020.05
2023-02-02T06:33:13.633Z,1020.02
2023-02-02T06:34:13.453Z,1020.07
2023-02-02T06:35:13.526Z,1020.00
2023-02-02T06:36:13.483Z,1020.14
2023-02-02T06:37:13.364Z,1020.16
2023-02-02T06:38:13.277Z,1020.07
2023-02-02T06:39:13.237Z,1020.09
2023-02-02T06:40:13.296Z,1020.13
2023-02-02T06:41:13.412Z,1020.06
2023-02-02T06:42:21.182Z,1020.17
2023-02-02T06:43:13.906Z,1020.15
2023-02-02T06:44:12.821Z,1020.11
2023-02-02T06:45:14.021Z,1020.11
2023-02-02T06:46:13.357Z,1020.12
2023-02-02T06:47:13.297Z,1020.19
2023-02-02T06:48:13.239Z,1020.18
2023-02-02T06:49:13.175Z,1020.22
2023-02-02T06:50:13.357Z,1020.19
2023-02-02T06:51:13.259Z,1020.22
2023-02-02T06:52:13.129Z,1020.30
2023-02-02T06:53:13.090Z,1020.23
2023-02-02T06:54:13.093Z,1020.29
2023-02-02T06:55:13.391Z,1020.25
2023-02-02T06:56:13.297Z,1020.31
2023-02-02T06:57:13.306Z,1020.30
2023-02-02T06:58:13.149Z,1020.32
2023-02-02T06:59:13.060Z,1020.31
2023-02-02T07:00:13.236Z,1020.33
2023-02-02T07:01:13.301Z,1020.34
2023-02-02T07:02:13.230Z,1020.33
2023-02-02T07:03:13.110Z,1020.36
2023-02-02T07:04:13.897Z,1020.33
2023-02-02T07:05:12.792Z,1020.31
2023-02-02T07:06:13.773Z,1020.39
2023-02-02T07:07:13.986Z,1020.38
2023-02-02T07:08:13.363Z,1020.40
2023-02-02T07:09:13.343Z,1020.37
2023-02-02T07:11:12.637Z,1020.43
2023-02-02T07:11:16.332Z,1020.49
2023-02-02T07:12:13.112Z,1020.45
2023-02-02T07:13:13.239Z,1020.43
2023-02-02T07:14:13.191Z,1020.40
2023-02-02T07:15:13.218Z,1020.45
2023-02-02T07:16:13.258Z,1020.51
2023-02-02T07:17:13.402Z,1020.46
2023-02-02T07:18:13.634Z,1020.43
2023-02-02T07:19:13.598Z,1020.46
2023-02-02T07:20:14.048Z,1020.45
2023-02-02T07:21:13.006Z,1020.44
2023-02-02T07:22:13.069Z,1020.46
2023-02-02T07:23:13.300Z,1020.48
2023-02-02T07:24:13.580Z,1020.54
2023-02-02T07:25:13.641Z,1020.56
2023-02-02T07:26:13.981Z,1020.44
2023-02-02T07:27:13.361Z,1020.53
2023-02-02T07:28:13.401Z,1020.58
2023-02-02T07:29:13.399Z,1020.58
2023-02-02T07:30:13.302Z,1020.57
2023-02-02T07:31:13.437Z,1020.59
2023-02-02T07:32:13.480Z,1020.55
2023-02-02T07:33:13.747Z,1020.54
2023-02-02T07:34:14.154Z,1020.62
2023-02-02T07:35:13.095Z,1020.57
2023-02-02T07:36:13.228Z,1020.60
2023-02-02T07:37:13.107Z,1020.55
2023-02-02T07:38:13.493Z,1020.55
2023-02-02T07:39:13.840Z,1020.54
2023-02-02T07:40:14.117Z,1020.61
2023-02-02T07:41:13.081Z,1020.60
2023-02-02T07:42:13.067Z,1020.61
2023-02-02T07:43:13.492Z,1020.57
2023-02-02T07:44:13.389Z,1020.58
2023-02-02T07:45:26.686Z,1020.64
2023-02-02T07:46:19.147Z,1020.59
2023-02-02T07:47:13.164Z,1020.66
2023-02-02T07:48:13.266Z,1020.63
2023-02-02T07:49:13.239Z,1020.63
2023-02-02T07:50:13.248Z,1020.69
2023-02-02T07:51:13.346Z,1020.72
2023-02-02T07:52:13.273Z,1020.65
2023-02-02T07:53:13.276Z,1020.62
2023-02-02T07:54:13.681Z,1020.62
2023-02-02T07:55:17.198Z,1020.71
2023-02-02T07:56:13.095Z,1020.67
2023-02-02T07:57:13.247Z,1020.71
2023-02-02T07:58:13.108Z,1020.71
2023-02-02T07:59:13.222Z,1020.76
2023-02-02T08:00:18.322Z,1020.66
2023-02-02T08:01:13.255Z,1020.72
2023-02-02T08:02:13.280Z,1020.69
2023-02-02T08:03:13.508Z,1020.71
2023-02-02T08:04:13.528Z,1020.70
2023-02-02T08:05:13.895Z,1020.78
2023-02-02T08:06:13.155Z,1020.73
2023-02-02T08:07:18.221Z,1020.70
2023-02-02T08:08:13.809Z,1020.77
2023-02-02T08:09:13.780Z,1020.74
2023-02-02T08:10:13.896Z,1020.79
2023-02-02T08:11:13.219Z,1020.73
2023-02-02T08:12:13.400Z,1020.78
2023-02-02T08:13:13.438Z,1020.83
2023-02-02T08:14:13.442Z,1020.81
2023-02-02T08:15:13.387Z,1020.86
2023-02-02T08:16:13.299Z,1020.85
2023-02-02T08:17:13.412Z,1020.85
2023-02-02T08:18:13.392Z,1020.87
2023-02-02T08:19:13.248Z,1020.80
2023-02-02T08:20:13.153Z,1020.84
2023-02-02T08:21:13.094Z,1020.82
2023-02-02T08:22:13.460Z,1020.90
2023-02-02T08:23:13.358Z,1020.87
2023-02-02T08:24:13.412Z,1020.95
2023-02-02T08:25:13.503Z,1020.91
2023-02-02T08:26:13.418Z,1020.89
2023-02-02T08:27:13.465Z,1020.87
2023-02-02T08:28:13.465Z,1020.94
2023-02-02T08:29:13.839Z,1020.99
2023-02-02T08:30:14.142Z,1020.99
2023-02-02T08:31:13.159Z,1020.90
2023-02-02T08:32:13.063Z,1021.01
2023-02-02T08:33:13.235Z,1020.97
2023-02-02T08:34:13.295Z,1020.99
2023-02-02T08:35:13.202Z,1021.01
2023-02-02T08:36:13.149Z,1020.98
2023-02-02T08:37:13.451Z,1020.92
2023-02-02T08:38:13.532Z,1021.05
2023-02-02T08:39:13.459Z,1021.12
2023-02-02T08:40:13.497Z,1021.03
2023-02-02T08:41:13.412Z,1021.14
2023-02-02T08:42:13.572Z,1021.07
2023-02-02T08:43:13.540Z,1021.12
2023-02-02T08:44:13.918Z,1021.03
2023-02-02T08:46:01.758Z,1021.12
2023-02-02T08:46:14.398Z,1021.15
2023-02-02T08:47:13.765Z,1021.15
2023-02-02T08:48:13.138Z,1021.16
2023-02-02T08:49:13.170Z,1021.11
2023-02-02T08:50:13.057Z,1021.16
2023-02-02T08:51:12.947Z,1021.17
2023-02-02T08:52:12.910Z,1021.18
2023-02-02T08:53:13.026Z,1021.09
2023-02-02T08:54:13.060Z,1021.25
2023-02-02T08:55:13.028Z,1021.27
2023-02-02T08:56:13.203Z,1021.28
2023-02-02T08:57:13.250Z,1021.27
2023-02-02T08:58:13.151Z,1021.26
2023-02-02T08:59:13.144Z,1021.31
2023-02-02T09:00:13.183Z,1021.32
2023-02-02T09:01:13.605Z,1021.29
2023-02-02T09:02:13.623Z,1021.24
2023-02-02T09:03:14.756Z,1021.31
2023-02-02T09:04:13.651Z,1021.30
2023-02-02T09:05:13.663Z,1021.35
2023-02-02T09:06:13.724Z,1021.41
2023-02-02T09:07:13.618Z,1021.34
2023-02-02T09:08:14.095Z,1021.37
2023-02-02T09:09:13.182Z,1021.42
2023-02-02T09:10:13.221Z,1021.48
2023-02-02T09:11:13.180Z,1021.40
2023-02-02T09:12:13.177Z,1021.51
2023-02-02T09:13:13.151Z,1021.43
2023-02-02T09:14:13.099Z,1021.48
2023-02-02T09:15:13.230Z,1021.45
2023-02-02T09:16:13.409Z,1021.48
2023-02-02T09:17:13.746Z,1021.53
2023-02-02T09:18:13.709Z,1021.41
2023-02-02T09:19:13.789Z,1021.64
2023-02-02T09:20:13.801Z,1021.51
2023-02-02T09:21:14.059Z,1021.58
2023-02-02T09:22:13.147Z,1021.62
2023-02-02T09:23:13.055Z,1021.65
2023-02-02T09:24:13.180Z,1021.66
2023-02-02T09:25:13.241Z,1021.68
2023-02-02T09:26:13.270Z,1021.62
2023-02-02T09:27:13.426Z,1021.71
2023-02-02T09:28:28.207Z,1021.75
2023-02-02T09:29:13.189Z,1021.66
2023-02-02T09:30:13.336Z,1021.74
2023-02-02T09:31:13.549Z,1021.65
2023-02-02T09:32:13.601Z,1021.81
2023-02-02T09:33:13.916Z,1021.80
2023-02-02T09:34:12.854Z,1021.91
2023-02-02T09:35:13.827Z,1021.82
2023-02-02T09:36:14.157Z,1021.81
2023-02-02T09:37:13.339Z,1021.90
2023-02-02T09:38:13.269Z,1021.88
2023-02-02T09:39:13.435Z,1021.88
2023-02-02T09:40:13.663Z,1021.89
2023-02-02T09:41:13.570Z,1021.90
2023-02-02T09:42:13.607Z,1021.85
2023-02-02T09:43:13.836Z,1021.92
2023-02-02T09:44:14.096Z,1021.89
2023-02-02T09:45:13.093Z,1021.98
2023-02-02T09:46:13.197Z,1021.96
2023-02-02T09:47:13.616Z,1021.94
2023-02-02T09:48:13.560Z,1022.08
2023-02-02T09:49:13.459Z,1022.09
2023-02-02T09:50:14.539Z,1022.07
2023-02-02T09:51:13.433Z,1022.07
2023-02-02T09:52:13.538Z,1022.14
2023-02-02T09:53:13.919Z,1022.04
2023-02-02T09:54:12.931Z,1022.06
2023-02-02T09:55:12.766Z,1022.06
2023-02-02T09:56:13.739Z,1022.09
2023-02-02T09:57:13.742Z,1022.14
2023-02-02T09:58:13.651Z,1022.16
2023-02-02T09:59:21.448Z,1022.15
2023-02-02T10:00:13.418Z,1022.20
2023-02-02T10:01:13.419Z,1022.17
2023-02-02T10:02:13.428Z,1022.22
2023-02-02T10:03:13.371Z,1022.15
2023-02-02T10:04:13.673Z,1022.23
2023-02-02T10:05:13.719Z,1022.23
2023-02-02T10:06:13.576Z,1022.33
2023-02-02T10:07:13.473Z,1022.27
2023-02-02T10:08:16.610Z,1022.27
2023-02-02T10:09:18.416Z,1022.25
2023-02-02T10:10:13.555Z,1022.24
2023-02-02T10:11:13.850Z,1022.32
2023-02-02T10:12:14.113Z,1022.26
2023-02-02T10:13:13.145Z,1022.27
2023-02-02T10:14:13.375Z,1022.30
2023-02-02T10:15:13.667Z,1022.28
2023-02-02T10:16:13.568Z,1022.29
2023-02-02T10:17:13.772Z,1022.30
2023-02-02T10:18:13.609Z,1022.22
2023-02-02T10:19:13.519Z,1022.32
2023-02-02T10:20:13.489Z,1022.34
2023-02-02T10:21:13.491Z,1022.32
2023-02-02T10:22:13.422Z,1022.32
2023-02-02T10:23:13.554Z,1022.43
2023-02-02T10:24:13.649Z,1022.35
2023-02-02T10:25:13.875Z,1022.31
2023-02-02T10:26:12.909Z,1022.43
2023-02-02T10:27:12.936Z,1022.42
2023-02-02T10:28:13.123Z,1022.31
2023-02-02T10:29:13.247Z,1022.44
2023-02-02T10:30:13.211Z,1022.42
2023-02-02T10:31:13.224Z,1022.49
2023-02-02T10:32:13.363Z,1022.48
2023-02-02T10:33:13.417Z,1022.49
2023-02-02T10:34:13.501Z,1022.50
2023-02-02T10:35:14.670Z,1022.61
2023-02-02T10:36:12.906Z,1022.52
2023-02-02T10:37:12.835Z,1022.46
2023-02-02T10:38:13.939Z,1022.54
2023-02-02T10:39:12.937Z,1022.54
2023-02-02T10:40:17.984Z,1022.68
2023-02-02T10:41:13.440Z,1022.61
2023-02-02T10:42:13.519Z,1022.63
2023-02-02T10:43:13.446Z,1022.70
2023-02-02T10:44:14.213Z,1022.65
2023-02-02T10:45:13.294Z,1022.67
2023-02-02T10:46:13.320Z,1022.70
2023-02-02T10:47:13.272Z,1022.73
2023-02-02T10:48:13.236Z,1022.67
2023-02-02T10:49:13.200Z,1022.70
2023-02-02T10:50:13.206Z,1022.68
2023-02-02T10:51:13.324Z,1022.66
2023-02-02T10:52:13.440Z,1022.69
2023-02-02T10:53:13.690Z,1022.67
2023-02-02T10:54:13.878Z,1022.68
2023-02-02T10:55:12.860Z,1022.67
2023-02-02T10:56:13.993Z,1022.61
2023-02-02T10:57:13.390Z,1022.60
2023-02-02T10:58:13.319Z,1022.64
2023-02-02T10:59:13.354Z,1022.64
2023-02-02T11:00:13.301Z,1022.67
2023-02-02T11:01:13.351Z,1022.63
2023-02-02T11:02:20.713Z,1022.65
2023-02-02T11:03:13.480Z,1022.64
2023-02-02T11:04:13.356Z,1022.66
2023-02-02T11:05:13.403Z,1022.69
2023-02-02T11:06:13.368Z,1022.72
2023-02-02T11:07:13.444Z,1022.70
2023-02-02T11:08:13.350Z,1022.69
2023-02-02T11:09:13.747Z,1022.69
2023-02-02T11:10:13.737Z,1022.94
2023-02-02T11:11:13.918Z,1022.70
2023-02-02T11:12:13.174Z,1022.74
2023-02-02T11:13:13.613Z,1022.75
2023-02-02T11:15:13.941Z,1022.75
2023-02-02T11:16:13.094Z,1022.75
2023-02-02T11:17:13.141Z,1022.82
2023-02-02T11:18:13.690Z,1022.78
2023-02-02T11:19:13.714Z,1022.74
2023-02-02T11:20:13.617Z,1022.85
2023-02-02T11:21:13.911Z,1022.78
2023-02-02T11:22:12.736Z,1022.84
2023-02-02T11:23:13.789Z,1022.82
2023-02-02T11:24:13.738Z,1022.80
2023-02-02T11:25:13.961Z,1022.84
2023-02-02T11:26:12.920Z,1022.87
2023-02-02T11:27:13.148Z,1022.88
2023-02-02T11:28:14.183Z,1022.78
2023-02-02T11:29:13.421Z,1022.90
2023-02-02T11:30:13.329Z,1022.87
2023-02-02T11:31:13.609Z,1022.78
2023-02-02T11:32:13.707Z,1022.79
2023-02-02T11:33:13.705Z,1022.76
2023-02-02T11:34:13.943Z,1022.82
2023-02-02T11:35:12.954Z,1022.78
2023-02-02T11:36:13.101Z,1022.79
2023-02-02T11:37:13.433Z,1022.75
2023-02-02T11:38:13.585Z,1022.72
2023-02-02T11:39:13.936Z,1022.74
2023-02-02T11:40:12.931Z,1022.74
2023-02-02T11:41:12.923Z,1022.83
2023-02-02T11:42:13.002Z,1022.79
2023-02-02T11:43:12.938Z,1022.80
2023-02-02T11:44:13.098Z,1022.80
2023-02-02T11:45:13.129Z,1022.81
2023-02-02T11:46:13.080Z,1022.80
2023-02-02T11:47:13.135Z,1022.80
2023-02-02T11:48:18.145Z,1022.76
2023-02-02T11:49:13.324Z,1022.82
2023-02-02T11:50:13.598Z,1022.76
2023-02-02T11:51:13.856Z,1022.75
2023-02-02T11:52:13.877Z,1022.82
2023-02-02T11:53:12.878Z,1022.76
2023-02-02T11:54:14.076Z,1022.76
2023-02-02T11:55:13.197Z,1022.80
2023-02-02T11:56:13.202Z,1022.84
2023-02-02T11:57:13.147Z,1022.70
2023-02-02T11:58:13.509Z,1022.67
2023-02-02T11:59:13.489Z,1022.68
2023-02-02T12:00:13.682Z,1022.73
2023-02-02T12:01:13.628Z,1022.67
2023-02-02T12:02:13.594Z,1022.69
2023-02-02T12:03:14.076Z,1022.68
2023-02-02T12:04:13.323Z,1022.72
2023-02-02T12:05:13.401Z,1022.69
2023-02-02T12:06:13.386Z,1022.68
2023-02-02T12:07:13.231Z,1022.70